Time;durP1;ratioP1;P1;durP2;ratioP2;P2;SDS_P1;SDS_P2;PMS_P1;PMS_P2;Temp;Humidity;BMP_temperature;BMP_pressure;BME280_temperature;BME280_humidity;BME280_pressure;Samples;Min_cycle;Max_cycle;Signal;HPM_P1;HPM_P2
2023/03/10 00:00:11;;;;;;;22.52;16.13;;;2.10;99.90;;;;;;7380497;19;20309;-85
2023/03/10 00:02:37;;;;;;;20.03;15.10;;;2.10;99.90;;;;;;7381684;19;20741;-87
2023/03/10 00:05:03;;;;;;;23.80;16.80;;;2.20;99.90;;;;;;7383545;19;20320;-85
2023/03/10 00:07:30;;;;;;;26.35;18.00;;;2.10;99.90;;;;;;7385278;19;20371;-85
2023/03/10 00:09:55;;;;;;;29.60;19.38;;;2.10;99.90;;;;;;7384580;19;20296;-84
2023/03/10 00:12:21;;;;;;;24.47;16.53;;;2.00;99.90;;;;;;7382785;19;20311;-86
2023/03/10 00:14:48;;;;;;;26.60;17.98;;;2.00;99.90;;;;;;7388296;19;20967;-85
2023/03/10 00:17:13;;;;;;;21.07;15.10;;;2.10;99.90;;;;;;7388822;19;20648;-81
2023/03/10 00:19:39;;;;;;;26.33;17.58;;;2.20;99.90;;;;;;7389144;19;20322;-84
2023/03/10 00:22:05;;;;;;;23.48;16.35;;;2.20;99.90;;;;;;7389468;19;20384;-82
2023/03/10 00:24:30;;;;;;;24.50;16.27;;;2.20;99.90;;;;;;7385530;19;20327;-81
2023/03/10 00:26:57;;;;;;;25.00;18.55;;;2.20;99.90;;;;;;7387538;19;20308;-80
2023/03/10 00:29:23;;;;;;;23.67;16.73;;;2.20;99.90;;;;;;7387559;19;20312;-90
2023/03/10 00:31:49;;;;;;;27.90;18.50;;;2.20;99.90;;;;;;7381149;19;20898;-84
2023/03/10 00:34:14;;;;;;;29.90;19.45;;;2.20;99.90;;;;;;7380933;19;20321;-88
2023/03/10 00:36:40;;;;;;;27.87;19.60;;;2.20;99.90;;;;;;7378273;19;20391;-89
2023/03/10 00:39:08;;;;;;;30.00;20.27;;;2.20;99.90;;;;;;7385700;19;20697;-83
2023/03/10 00:41:35;;;;;;;25.77;17.00;;;2.10;99.90;;;;;;7381349;19;20313;-83
2023/03/10 00:44:01;;;;;;;32.20;20.13;;;2.10;99.90;;;;;;7384779;19;20309;-81
2023/03/10 00:46:28;;;;;;;29.13;16.73;;;2.20;99.90;;;;;;7387608;19;20345;-81
2023/03/10 00:48:54;;;;;;;25.50;17.30;;;2.20;99.90;;;;;;7387202;19;20316;-81
2023/03/10 00:51:20;;;;;;;29.87;20.30;;;2.20;99.90;;;;;;7388478;19;20320;-80
2023/03/10 00:53:46;;;;;;;30.27;19.40;;;2.20;99.90;;;;;;7388346;19;20456;-82
2023/03/10 00:56:17;;;;;;;32.38;20.83;;;2.20;99.90;;;;;;7389234;19;20312;-84
2023/03/10 00:58:44;;;;;;;28.83;20.80;;;2.10;99.90;;;;;;7390417;19;20308;-84
2023/03/10 01:01:29;;;;;;;33.63;21.15;;;2.10;99.90;;;;;;7382962;19;20316;-80
2023/03/10 01:04:02;;;;;;;27.48;18.05;;;2.10;99.90;;;;;;7387679;19;20366;-81
2023/03/10 01:06:29;;;;;;;35.07;21.53;;;2.10;99.90;;;;;;7368432;19;20312;-79
2023/03/10 01:08:55;;;;;;;28.38;18.58;;;2.10;99.90;;;;;;7388882;19;20332;-86
2023/03/10 01:11:23;;;;;;;30.37;20.20;;;2.10;99.90;;;;;;7388666;19;21066;-84
2023/03/10 01:13:49;;;;;;;35.25;21.63;;;2.10;99.90;;;;;;7388648;19;20333;-84
2023/03/10 01:16:15;;;;;;;32.13;21.23;;;2.10;99.90;;;;;;7388464;19;20304;-82
2023/03/10 01:18:47;;;;;;;31.55;21.60;;;2.00;99.90;;;;;;7389847;19;20613;-83
2023/03/10 01:21:42;;;;;;;32.25;20.85;;;2.00;99.90;;;;;;7388971;19;20309;-82
2023/03/10 01:24:10;;;;;;;35.95;21.75;;;2.00;99.90;;;;;;7280514;19;2004227;-83
2023/03/10 01:26:35;;;;;;;34.97;21.57;;;2.00;99.90;;;;;;7385823;19;20308;-83
2023/03/10 01:29:01;;;;;;;35.35;21.23;;;2.00;99.90;;;;;;7387046;19;20381;-82
2023/03/10 01:31:27;;;;;;;29.23;19.90;;;2.00;99.90;;;;;;7388634;19;20332;-80
2023/03/10 01:33:53;;;;;;;35.28;21.75;;;2.00;99.90;;;;;;7387107;19;20766;-83
2023/03/10 01:36:24;;;;;;;35.47;22.13;;;2.10;99.90;;;;;;7383285;19;20305;-82
2023/03/10 01:38:50;;;;;;;34.67;21.25;;;2.00;99.90;;;;;;7388495;19;20538;-84
2023/03/10 01:41:16;;;;;;;41.70;24.33;;;2.00;99.90;;;;;;7389191;19;20426;-86
2023/03/10 01:43:42;;;;;;;32.95;22.25;;;2.00;99.90;;;;;;7386826;19;20332;-82
2023/03/10 01:46:34;;;;;;;27.30;18.65;;;2.00;99.90;;;;;;7387093;19;20381;-86
2023/03/10 01:49:29;;;;;;;25.88;18.15;;;2.00;99.90;;;;;;7283634;19;2004422;-82
2023/03/10 01:52:05;;;;;;;34.83;22.38;;;2.00;99.90;;;;;;7385583;19;20340;-84
2023/03/10 01:54:45;;;;;;;28.83;19.00;;;2.10;99.90;;;;;;7284372;19;2005228;-78
2023/03/10 01:57:23;;;;;;;36.08;22.65;;;2.00;99.90;;;;;;7386488;19;20392;-85
2023/03/10 01:59:50;;;;;;;29.30;18.13;;;2.00;99.90;;;;;;7387290;19;20312;-82
2023/03/10 02:02:17;;;;;;;31.83;19.57;;;2.00;99.90;;;;;;7386725;19;20360;-85
2023/03/10 02:04:47;;;;;;;31.45;20.42;;;2.10;99.90;;;;;;7387559;19;20311;-82
2023/03/10 02:07:13;;;;;;;33.25;19.80;;;2.00;99.90;;;;;;7388182;19;21162;-83
2023/03/10 02:09:42;;;;;;;29.38;18.45;;;2.10;99.90;;;;;;7387428;19;20301;-85
2023/03/10 02:12:08;;;;;;;28.67;19.17;;;2.10;99.90;;;;;;7387930;19;20308;-81
2023/03/10 02:14:34;;;;;;;28.83;17.60;;;2.10;99.90;;;;;;7388464;19;20338;-79
2023/03/10 02:17:04;;;;;;;26.90;17.33;;;2.10;99.90;;;;;;7389013;19;20344;-83
2023/03/10 02:19:48;;;;;;;33.37;20.47;;;2.10;99.90;;;;;;7387868;19;20321;-85
2023/03/10 02:22:16;;;;;;;25.67;17.00;;;2.10;99.90;;;;;;7287085;19;2004398;-81
2023/03/10 02:25:19;;;;;;;26.02;17.05;;;2.20;99.90;;;;;;7388290;19;20340;-78
2023/03/10 02:27:46;;;;;;;27.13;17.23;;;2.10;99.90;;;;;;7283216;19;2004452;-80
2023/03/10 02:30:46;;;;;;;23.58;16.15;;;2.20;99.90;;;;;;7385804;19;20313;-82
2023/03/10 02:33:17;;;;;;;21.38;14.82;;;2.30;99.90;;;;;;7283349;19;2004295;-85
2023/03/10 02:35:43;;;;;;;21.45;15.45;;;2.30;99.90;;;;;;7387158;19;20350;-82
2023/03/10 02:38:13;;;;;;;28.67;16.63;;;2.40;99.90;;;;;;7384959;19;20344;-86
2023/03/10 02:40:48;;;;;;;22.02;15.48;;;2.40;99.90;;;;;;7386451;19;20325;-81
2023/03/10 02:43:21;;;;;;;24.27;15.70;;;2.40;99.90;;;;;;7384752;19;20321;-79
2023/03/10 02:45:50;;;;;;;21.90;14.90;;;2.40;99.90;;;;;;7385511;19;20316;-78
2023/03/10 02:48:24;;;;;;;20.25;13.73;;;2.40;99.90;;;;;;7385841;19;20980;-78
2023/03/10 02:50:50;;;;;;;16.57;12.73;;;2.50;99.90;;;;;;7386865;19;20341;-87
2023/03/10 02:53:19;;;;;;;19.83;14.27;;;2.50;99.90;;;;;;7385595;19;20341;-85
2023/03/10 02:55:47;;;;;;;17.55;13.02;;;2.60;99.90;;;;;;7386696;19;20735;-80
2023/03/10 02:58:12;;;;;;;16.95;12.43;;;2.60;99.90;;;;;;7384703;19;20309;-79
2023/03/10 03:00:39;;;;;;;21.57;14.03;;;2.70;99.90;;;;;;7385681;19;20329;-83
2023/03/10 03:03:06;;;;;;;18.38;13.77;;;2.70;99.90;;;;;;7384527;19;20309;-81
2023/03/10 03:05:32;;;;;;;17.25;12.52;;;2.70;99.90;;;;;;7384944;19;20323;-83
2023/03/10 03:08:04;;;;;;;17.92;13.02;;;2.70;99.90;;;;;;7387592;19;20617;-84
2023/03/10 03:10:29;;;;;;;16.27;12.35;;;2.80;99.90;;;;;;7384991;19;20300;-81
2023/03/10 03:12:55;;;;;;;18.13;12.55;;;2.70;99.90;;;;;;7385335;19;20335;-79
2023/03/10 03:15:21;;;;;;;16.45;12.57;;;2.80;99.90;;;;;;7384188;19;20286;-78
2023/03/10 03:17:48;;;;;;;15.23;11.77;;;2.80;99.90;;;;;;7384972;19;20321;-83
2023/03/10 03:20:13;;;;;;;18.30;13.40;;;2.90;99.90;;;;;;7383008;19;20308;-82
2023/03/10 03:22:41;;;;;;;15.05;11.38;;;2.90;99.90;;;;;;7384182;19;20305;-80
2023/03/10 03:25:08;;;;;;;16.65;11.88;;;2.90;99.90;;;;;;7385030;19;21161;-83
2023/03/10 03:27:35;;;;;;;14.75;10.93;;;2.90;99.90;;;;;;7385573;19;20327;-83
2023/03/10 03:30:01;;;;;;;17.35;13.15;;;2.90;99.90;;;;;;7385517;19;20325;-82
2023/03/10 03:32:27;;;;;;;15.07;11.00;;;2.90;99.90;;;;;;7384975;19;20883;-83
2023/03/10 03:35:00;;;;;;;17.08;12.55;;;2.90;99.90;;;;;;7384983;19;20316;-86
2023/03/10 03:37:26;;;;;;;15.95;11.38;;;3.00;99.90;;;;;;7385538;19;20317;-86
2023/03/10 03:39:51;;;;;;;14.70;11.32;;;3.00;99.90;;;;;;7384365;19;20348;-81
2023/03/10 03:42:17;;;;;;;14.63;11.57;;;3.00;99.90;;;;;;7384446;19;20336;-82
2023/03/10 03:44:51;;;;;;;15.60;10.95;;;3.00;99.90;;;;;;7382817;19;20425;-81
2023/03/10 03:47:16;;;;;;;15.93;11.43;;;3.00;99.90;;;;;;7383654;19;20744;-80
2023/03/10 03:49:48;;;;;;;14.63;10.73;;;3.00;99.90;;;;;;7388954;19;20312;-84
2023/03/10 03:52:13;;;;;;;13.90;10.73;;;3.00;99.90;;;;;;7391587;19;20330;-84
2023/03/10 03:54:39;;;;;;;13.65;10.48;;;3.00;99.90;;;;;;7391405;19;20832;-88
2023/03/10 03:57:07;;;;;;;15.18;11.18;;;3.00;99.90;;;;;;7391210;19;20319;-86
2023/03/10 03:59:32;;;;;;;14.48;10.98;;;3.10;99.90;;;;;;7391156;19;20308;-86
2023/03/10 04:01:59;;;;;;;17.07;10.80;;;3.10;99.90;;;;;;7391907;19;20395;-84
2023/03/10 04:04:25;;;;;;;15.35;10.75;;;3.10;99.90;;;;;;7388699;19;20333;-83
2023/03/10 04:06:57;;;;;;;13.57;9.93;;;3.20;99.90;;;;;;7392316;19;20652;-86
2023/03/10 04:09:22;;;;;;;13.07;9.90;;;3.20;99.90;;;;;;7390758;19;20329;-87
2023/03/10 04:11:48;;;;;;;13.50;9.90;;;3.30;99.90;;;;;;7390264;19;20316;-85
2023/03/10 04:14:16;;;;;;;14.13;10.45;;;3.30;99.90;;;;;;7388397;19;20336;-84
2023/03/10 04:16:42;;;;;;;13.30;10.10;;;3.30;99.90;;;;;;7383302;19;20340;-80
2023/03/10 04:19:08;;;;;;;12.95;9.07;;;3.30;99.90;;;;;;7384030;19;20337;-83
2023/03/10 04:21:49;;;;;;;11.73;9.52;;;3.40;99.90;;;;;;7381731;19;20316;-82
2023/03/10 04:24:16;;;;;;;10.73;8.48;;;3.30;99.90;;;;;;7386231;19;20320;-91
2023/03/10 04:26:42;;;;;;;9.68;7.72;;;3.50;99.90;;;;;;7334822;19;20325;-82
2023/03/10 04:29:10;;;;;;;10.00;8.20;;;3.50;99.90;;;;;;7387988;19;20837;-86
2023/03/10 04:31:38;;;;;;;8.55;6.85;;;3.50;99.90;;;;;;7386960;19;20334;-88
2023/03/10 04:34:06;;;;;;;7.57;6.40;;;3.50;99.90;;;;;;7386276;19;20348;-88
2023/03/10 04:36:33;;;;;;;9.90;7.33;;;3.60;99.90;;;;;;7391946;19;20317;-88
2023/03/10 04:39:01;;;;;;;8.30;6.30;;;3.70;99.90;;;;;;7389166;19;20380;-87
2023/03/10 04:41:30;;;;;;;8.17;5.80;;;3.80;99.90;;;;;;7389617;19;21039;-82
2023/03/10 04:43:57;;;;;;;6.38;3.97;;;3.80;99.90;;;;;;7367189;19;20367;-86
2023/03/10 04:46:24;;;;;;;4.38;3.30;;;4.00;99.90;;;;;;7389308;19;20352;-82
2023/03/10 04:48:51;;;;;;;6.53;3.60;;;4.20;99.90;;;;;;7388840;19;20950;-84
2023/03/10 04:51:18;;;;;;;3.13;2.78;;;4.40;99.90;;;;;;7391390;19;20385;-85
2023/03/10 04:53:49;;;;;;;3.73;2.53;;;4.50;99.90;;;;;;7391607;19;20399;-81
2023/03/10 04:56:22;;;;;;;3.80;2.50;;;4.70;99.90;;;;;;7391561;19;20301;-83
2023/03/10 04:58:48;;;;;;;2.55;2.10;;;4.80;99.90;;;;;;7390104;19;20705;-79
2023/03/10 05:01:14;;;;;;;2.72;2.28;;;4.90;99.90;;;;;;7388556;19;20352;-82
2023/03/10 05:03:45;;;;;;;2.20;2.00;;;5.00;99.90;;;;;;7388979;19;20308;-83
2023/03/10 05:06:16;;;;;;;2.70;2.10;;;5.20;99.90;;;;;;7390263;19;20417;-82
2023/03/10 05:08:46;;;;;;;5.20;2.42;;;5.30;99.90;;;;;;7392121;19;20324;-82
2023/03/10 05:11:12;;;;;;;2.28;2.05;;;5.40;99.90;;;;;;7391722;19;20384;-84
2023/03/10 05:13:38;;;;;;;2.30;2.10;;;5.50;99.90;;;;;;7390827;19;20427;-86
2023/03/10 05:16:24;;;;;;;2.42;2.20;;;5.60;99.90;;;;;;7385209;19;20317;-86
2023/03/10 05:18:55;;;;;;;4.53;2.40;;;5.80;99.90;;;;;;7331413;19;20297;-89
2023/03/10 05:21:26;;;;;;;6.32;2.50;;;5.90;99.90;;;;;;7387486;19;20327;-83
2023/03/10 05:23:53;;;;;;;3.97;2.30;;;6.00;99.90;;;;;;7371459;19;20314;-83
2023/03/10 05:26:21;;;;;;;4.93;2.80;;;6.00;99.90;;;;;;7361703;19;20309;-87
2023/03/10 05:28:48;;;;;;;2.70;2.40;;;6.00;99.90;;;;;;7391207;19;20312;-81
2023/03/10 05:31:24;;;;;;;4.23;2.47;;;6.10;99.90;;;;;;7388550;19;20340;-89
2023/03/10 05:33:53;;;;;;;2.87;2.10;;;6.10;99.90;;;;;;7389509;19;20335;-87
2023/03/10 05:36:19;;;;;;;2.47;2.28;;;6.20;99.90;;;;;;7385689;19;20316;-81
2023/03/10 05:38:46;;;;;;;3.88;2.35;;;6.30;99.90;;;;;;7371278;19;20401;-80
2023/03/10 05:41:16;;;;;;;3.40;1.80;;;6.30;99.90;;;;;;7387437;19;20954;-81
2023/03/10 05:43:45;;;;;;;3.70;2.30;;;6.40;99.90;;;;;;7384208;19;20349;-86
2023/03/10 05:46:13;;;;;;;4.60;2.10;;;6.50;99.90;;;;;;7387699;19;20659;-80
2023/03/10 05:48:46;;;;;;;3.70;2.00;;;6.60;99.90;;;;;;7345606;19;20675;-87
2023/03/10 05:51:14;;;;;;;3.30;2.30;;;6.60;99.90;;;;;;7369240;19;20308;-90
2023/03/10 05:53:40;;;;;;;4.80;2.20;;;6.60;99.90;;;;;;7387800;19;20380;-81
2023/03/10 05:56:14;;;;;;;3.47;1.80;;;6.70;99.90;;;;;;7390838;19;20308;-82
2023/03/10 05:58:41;;;;;;;3.83;2.00;;;6.70;99.90;;;;;;7391157;19;20359;-84
2023/03/10 06:01:09;;;;;;;2.92;1.83;;;6.70;99.90;;;;;;7390268;19;20310;-86
2023/03/10 06:03:43;;;;;;;2.67;1.80;;;6.70;99.90;;;;;;7390729;19;20308;-81
2023/03/10 06:06:09;;;;;;;4.50;2.40;;;6.80;99.90;;;;;;7386636;19;20343;-83
2023/03/10 06:08:35;;;;;;;2.28;1.85;;;6.80;99.90;;;;;;7389286;19;20321;-85
2023/03/10 06:11:01;;;;;;;3.75;2.25;;;6.80;99.90;;;;;;7393049;19;20305;-86
2023/03/10 06:13:27;;;;;;;2.73;1.93;;;6.90;99.90;;;;;;7387446;19;20309;-83
2023/03/10 06:15:56;;;;;;;4.72;2.20;;;6.80;99.90;;;;;;7387536;19;21859;-84
2023/03/10 06:18:22;;;;;;;2.85;2.00;;;6.90;99.90;;;;;;7385906;19;20324;-88
2023/03/10 06:20:47;;;;;;;2.28;1.92;;;6.90;99.90;;;;;;7387410;19;20317;-82
2023/03/10 06:23:14;;;;;;;4.20;3.30;;;7.00;99.90;;;;;;7386867;19;20313;-80
2023/03/10 06:25:40;;;;;;;4.97;2.90;;;7.00;99.90;;;;;;7387795;19;20868;-86
2023/03/10 06:28:05;;;;;;;3.33;2.45;;;7.00;99.90;;;;;;7387579;19;20308;-79
2023/03/10 06:30:31;;;;;;;3.80;2.00;;;7.00;99.90;;;;;;7384804;19;20726;-84
2023/03/10 06:32:58;;;;;;;2.80;2.10;;;7.10;99.90;;;;;;7380674;19;20356;-80
2023/03/10 06:35:23;;;;;;;4.22;2.22;;;7.10;99.90;;;;;;7382698;19;20359;-84
2023/03/10 06:37:49;;;;;;;2.00;1.80;;;7.10;99.90;;;;;;7384113;19;20325;-80
2023/03/10 06:40:15;;;;;;;2.67;1.87;;;7.10;99.90;;;;;;7384470;19;20349;-82
2023/03/10 06:42:40;;;;;;;5.03;1.90;;;7.20;99.90;;;;;;7385083;19;20355;-84
2023/03/10 06:45:07;;;;;;;2.50;1.60;;;7.30;99.90;;;;;;7385930;19;20323;-79
2023/03/10 06:47:35;;;;;;;2.58;1.90;;;7.30;99.90;;;;;;7390940;19;20333;-82
2023/03/10 06:50:06;;;;;;;2.30;1.60;;;7.30;99.90;;;;;;7388568;19;20313;-80
2023/03/10 06:52:33;;;;;;;3.42;2.05;;;7.30;99.90;;;;;;7389589;19;20328;-91
2023/03/10 06:54:59;;;;;;;2.55;2.00;;;7.40;99.90;;;;;;7404380;19;20309;-91
2023/03/10 06:57:26;;;;;;;1.97;1.70;;;7.40;99.90;;;;;;7409427;19;20293;-88
2023/03/10 06:59:51;;;;;;;7.05;3.30;;;7.40;99.90;;;;;;7403508;19;20344;-87
2023/03/10 07:02:18;;;;;;;7.50;3.60;;;7.50;99.90;;;;;;7409237;19;20297;-86
2023/03/10 07:04:45;;;;;;;2.95;1.80;;;7.50;99.90;;;;;;7411532;19;20308;-91
2023/03/10 07:07:12;;;;;;;3.67;1.95;;;7.60;99.90;;;;;;7410033;19;20335;-91
2023/03/10 07:09:38;;;;;;;1.90;1.50;;;7.50;99.90;;;;;;7407499;19;20329;-88
2023/03/10 07:12:04;;;;;;;2.00;1.80;;;7.60;99.90;;;;;;7400976;19;20309;-89
2023/03/10 07:14:30;;;;;;;1.75;1.50;;;7.60;99.90;;;;;;7403815;19;20324;-88
2023/03/10 07:16:56;;;;;;;1.63;1.52;;;7.70;99.90;;;;;;7403161;19;20308;-92
2023/03/10 07:19:22;;;;;;;3.53;1.90;;;7.70;99.90;;;;;;7402944;19;20340;-92
2023/03/10 07:21:47;;;;;;;4.20;2.07;;;7.70;99.90;;;;;;7404793;19;20316;-92
2023/03/10 07:24:13;;;;;;;2.30;1.80;;;7.70;99.90;;;;;;7400348;19;20332;-91
2023/03/10 07:26:41;;;;;;;3.23;2.10;;;7.70;99.90;;;;;;7393723;19;20665;-81
2023/03/10 07:29:09;;;;;;;2.28;1.75;;;7.70;99.90;;;;;;7377186;19;20315;-89
2023/03/10 07:31:36;;;;;;;5.95;2.20;;;7.70;99.90;;;;;;7376970;19;20361;-87
2023/03/10 07:34:02;;;;;;;1.63;1.50;;;7.70;99.90;;;;;;7398985;19;20305;-89
2023/03/10 07:36:29;;;;;;;1.83;1.60;;;7.80;99.90;;;;;;7393973;19;20325;-87
2023/03/10 07:38:55;;;;;;;2.05;1.65;;;7.80;99.90;;;;;;7397074;19;20309;-94
2023/03/10 07:41:22;;;;;;;2.45;1.70;;;7.80;99.90;;;;;;7389804;19;20320;-81
2023/03/10 07:43:54;;;;;;;1.65;1.52;;;7.70;99.90;;;;;;7378370;19;20305;-94
2023/03/10 07:46:19;;;;;;;1.60;1.50;;;7.80;99.90;;;;;;7399843;19;20832;-95
2023/03/10 07:48:45;;;;;;;3.58;1.60;;;7.80;99.90;;;;;;7398191;19;20325;-81
2023/03/10 07:51:11;;;;;;;2.78;1.65;;;7.90;99.90;;;;;;7399212;19;20317;-87
2023/03/10 07:53:52;;;;;;;3.40;1.87;;;7.90;99.90;;;;;;7398318;19;20333;-85
2023/03/10 07:56:18;;;;;;;1.60;1.50;;;7.90;99.90;;;;;;7403204;19;20321;-92
2023/03/10 07:58:45;;;;;;;1.77;1.67;;;7.90;99.90;;;;;;7399887;19;20317;-95
2023/03/10 08:01:22;;;;;;;2.42;2.15;;;8.00;99.90;;;;;;7402199;19;20339;-91
2023/03/10 08:03:53;;;;;;;2.88;1.80;;;8.10;99.90;;;;;;7356852;19;20466;-93
2023/03/10 08:06:21;;;;;;;2.10;1.60;;;8.10;99.90;;;;;;7389260;19;20337;-81
2023/03/10 08:08:48;;;;;;;3.10;1.67;;;8.10;99.90;;;;;;7387981;19;20312;-79
2023/03/10 08:11:39;;;;;;;3.17;1.67;;;8.20;99.90;;;;;;7295059;19;20357;-94
2023/03/10 08:14:26;;;;;;;4.45;1.70;;;8.20;99.90;;;;;;7371830;19;20345;-93
2023/03/10 08:17:43;;;;;;;3.33;2.28;;;8.20;99.90;;;;;;7409950;19;20336;-90
2023/03/10 08:27:28;;;;;;;1.77;1.40;;;8.50;99.90;;;;;;7403725;19;20300;-90
2023/03/10 08:30:20;;;;;;;1.52;1.42;;;8.50;99.90;;;;;;7344723;19;20351;-81
2023/03/10 08:32:47;;;;;;;1.70;1.60;;;8.70;99.90;;;;;;7361080;19;20348;-88
2023/03/10 08:35:15;;;;;;;1.83;1.50;;;8.60;99.90;;;;;;7410099;19;20337;-89
2023/03/10 08:37:42;;;;;;;2.40;1.33;;;8.70;99.90;;;;;;7376728;19;20685;-78
2023/03/10 08:40:09;;;;;;;4.00;1.50;;;8.70;99.90;;;;;;7385690;19;20313;-81
2023/03/10 08:42:35;;;;;;;1.63;1.52;;;8.80;99.90;;;;;;7384926;19;20355;-82
2023/03/10 08:45:02;;;;;;;1.87;1.33;;;8.90;99.90;;;;;;7389383;19;20847;-80
2023/03/10 08:47:27;;;;;;;2.10;1.60;;;8.90;99.90;;;;;;7387100;19;20312;-77
2023/03/10 08:50:08;;;;;;;4.28;2.38;;;8.90;99.90;;;;;;7387889;19;20356;-86
2023/03/10 09:08:03;;;;;;;1.40;1.17;;;9.50;99.90;;;;;;7393717;19;20323;-91
2023/03/10 09:10:40;;;;;;;1.65;1.40;;;9.60;99.90;;;;;;7399009;19;20332;-88
2023/03/10 09:13:26;;;;;;;1.70;1.20;;;9.70;99.90;;;;;;7387738;19;20323;-91
2023/03/10 09:16:34;;;;;;;1.83;1.67;;;10.00;99.90;;;;;;7421039;19;20720;-87
2023/03/10 09:23:44;;;;;;;1.30;1.20;;;10.20;99.90;;;;;;7420586;19;20352;-88
2023/03/10 09:26:41;;;;;;;0.80;0.80;;;10.30;99.90;;;;;;7419711;19;20333;-86
2023/03/10 09:33:32;;;;;;;2.53;2.10;;;10.70;99.90;;;;;;7419409;19;20352;-92
2023/03/10 09:43:27;;;;;;;1.15;1.05;;;11.30;99.90;;;;;;7316556;19;2004380;-88
2023/03/10 09:50:23;;;;;;;1.60;0.80;;;11.60;99.90;;;;;;7416903;19;20339;-82
2023/03/10 09:53:38;;;;;;;1.30;0.80;;;11.70;99.90;;;;;;7267261;19;2004212;-81
2023/03/10 10:00:23;;;;;;;0.88;0.80;;;12.00;99.90;;;;;;7410169;19;21089;-84
2023/03/10 10:03:16;;;;;;;0.90;0.90;;;11.90;99.90;;;;;;7380534;19;20313;-83
2023/03/10 10:05:45;;;;;;;0.73;0.73;;;11.90;99.90;;;;;;7305963;19;2004228;-80
2023/03/10 10:08:20;;;;;;;0.77;0.77;;;12.00;99.90;;;;;;7326188;19;20301;-83
2023/03/10 10:10:49;;;;;;;1.00;0.70;;;11.90;99.90;;;;;;7388367;19;20312;-80
2023/03/10 10:13:45;;;;;;;0.80;0.80;;;11.90;99.90;;;;;;7332436;19;20320;-80
2023/03/10 10:17:09;;;;;;;1.30;1.10;;;11.80;99.90;;;;;;7256960;19;2004171;-81
2023/03/10 10:24:01;;;;;;;1.10;1.00;;;12.00;99.90;;;;;;7413988;19;20355;-83
2023/03/10 10:27:30;;;;;;;0.80;0.80;;;12.10;99.90;;;;;;7305488;19;2004369;-83
2023/03/10 10:33:59;;;;;;;1.95;1.67;;;12.30;99.90;;;;;;7333708;19;20316;-88
2023/03/10 10:36:47;;;;;;;1.38;0.98;;;12.30;99.90;;;;;;7407007;19;20332;-84
2023/03/10 10:39:40;;;;;;;2.93;2.00;;;12.40;99.90;;;;;;7308475;19;2004309;-91
2023/03/10 10:42:31;;;;;;;0.70;0.70;;;12.40;99.90;;;;;;7383846;19;20293;-84
2023/03/10 10:45:24;;;;;;;1.23;0.85;;;12.40;99.90;;;;;;7397437;19;20312;-79
2023/03/10 10:47:56;;;;;;;1.13;1.02;;;12.40;99.90;;;;;;7289975;19;2004180;-86
2023/03/10 10:50:36;;;;;;;0.80;0.80;;;12.40;99.90;;;;;;7402419;19;20336;-82
2023/03/10 10:53:23;;;;;;;1.10;1.00;;;12.40;99.90;;;;;;7397648;19;20324;-81
2023/03/10 10:56:04;;;;;;;1.52;0.82;;;12.40;99.90;;;;;;7294612;19;2004331;-85
2023/03/10 11:02:53;;;;;;;1.00;1.00;;;12.40;99.90;;;;;;7296071;19;2004409;-80
2023/03/10 11:05:56;;;;;;;1.02;0.80;;;12.40;99.90;;;;;;7368723;19;20381;-80
2023/03/10 11:08:33;;;;;;;1.17;1.10;;;12.40;99.90;;;;;;7409381;19;20348;-80
2023/03/10 11:11:48;;;;;;;1.27;1.08;;;12.50;99.90;;;;;;7397436;19;20311;-83
2023/03/10 11:14:40;;;;;;;1.30;1.20;;;12.50;99.90;;;;;;7103614;19;2004418;-80
2023/03/10 11:21:32;;;;;;;1.98;1.20;;;12.70;99.90;;;;;;7407381;19;20405;-80
2023/03/10 11:24:40;;;;;;;1.40;1.30;;;12.90;99.90;;;;;;7198631;19;2004733;-86
2023/03/10 11:27:59;;;;;;;2.33;1.00;;;13.20;99.90;;;;;;7190844;19;2004021;-83
2023/03/10 11:30:47;;;;;;;0.82;0.82;;;13.40;99.90;;;;;;7356907;19;20318;-83
2023/03/10 11:33:25;;;;;;;1.00;0.88;;;13.40;99.90;;;;;;7368099;19;20404;-80
2023/03/10 11:36:33;;;;;;;1.33;0.93;;;13.50;99.90;;;;;;7240892;19;2004635;-86
2023/03/10 11:42:48;;;;;;;1.25;0.70;;;13.80;99.90;;;;;;7192554;19;2004304;-86
2023/03/10 11:49:26;;;;;;;2.80;1.13;;;14.30;99.90;;;;;;7147881;19;2004190;-80
2023/03/10 11:51:59;;;;;;;0.90;0.90;;;14.70;99.90;;;;;;7402220;19;20476;-81
2023/03/10 11:55:16;;;;;;;1.33;0.97;;;14.80;99.90;;;;;;7396856;19;20376;-81
2023/03/10 11:57:47;;;;;;;1.20;1.10;;;14.80;99.90;;;;;;7272644;19;2004208;-81
2023/03/10 12:01:07;;;;;;;1.08;0.85;;;14.70;99.90;;;;;;7375862;19;20427;-79
2023/03/10 12:07:41;;;;;;;1.10;1.00;;;14.50;99.90;;;;;;7244849;19;2004404;-84
2023/03/10 12:10:30;;;;;;;1.58;1.02;;;14.00;99.90;;;;;;7292101;19;2004259;-85
2023/03/10 12:13:56;;;;;;;1.00;1.00;;;14.00;99.90;;;;;;7417058;19;20340;-81
2023/03/10 12:16:31;;;;;;;1.02;1.02;;;13.90;99.90;;;;;;7360475;19;20335;-81
2023/03/10 12:19:04;;;;;;;1.40;0.87;;;14.00;99.90;;;;;;7323276;19;21242;-83
2023/03/10 12:21:37;;;;;;;1.13;0.87;;;13.90;99.90;;;;;;7405551;19;20316;-81
2023/03/10 12:24:10;;;;;;;1.40;1.00;;;13.90;99.90;;;;;;7355453;19;20678;-80
2023/03/10 12:27:07;;;;;;;6.97;4.03;;;13.80;99.90;;;;;;7299495;19;2004195;-81
2023/03/10 12:29:40;;;;;;;1.00;0.90;;;13.90;99.90;;;;;;7414063;19;20335;-81
2023/03/10 12:32:58;;;;;;;1.08;1.08;;;13.80;99.90;;;;;;7280979;19;2004229;-82
2023/03/10 12:36:21;;;;;;;1.10;1.00;;;13.80;99.90;;;;;;7313420;19;2004029;-83
2023/03/10 12:42:16;;;;;;;2.00;1.10;;;13.90;99.90;;;;;;7411077;19;20348;-85
2023/03/10 12:45:43;;;;;;;2.20;1.10;;;14.10;99.90;;;;;;7307001;19;2004335;-83
2023/03/10 12:48:56;;;;;;;1.10;1.10;;;14.20;99.90;;;;;;7316260;19;2004224;-85
2023/03/10 12:51:40;;;;;;;0.90;0.90;;;14.30;99.90;;;;;;7404133;19;20348;-87
2023/03/10 12:58:19;;;;;;;1.40;1.20;;;14.40;99.90;;;;;;7421354;19;20384;-84
2023/03/10 13:00:48;;;;;;;1.77;1.20;;;14.40;99.90;;;;;;7347680;19;20416;-80
2023/03/10 13:03:59;;;;;;;1.20;1.10;;;14.50;99.90;;;;;;7363561;19;20336;-86
2023/03/10 13:06:55;;;;;;;1.50;1.30;;;14.60;99.90;;;;;;7293663;19;2004465;-89
2023/03/10 13:09:31;;;;;;;1.20;1.10;;;14.70;99.90;;;;;;7365230;19;20352;-86
2023/03/10 13:14:55;;;;;;;1.33;1.08;;;14.60;99.90;;;;;;7358462;19;20308;-87
2023/03/10 13:18:10;;;;;;;1.40;1.30;;;14.30;99.90;;;;;;7407492;19;20341;-82
2023/03/10 13:21:00;;;;;;;1.10;1.00;;;14.30;99.90;;;;;;7343472;19;20293;-86
2023/03/10 13:24:45;;;;;;;1.20;1.10;;;14.20;99.90;;;;;;7421977;19;20351;-85
2023/03/10 13:31:28;;;;;;;1.07;0.97;;;14.20;99.90;;;;;;7298548;19;2004271;-81
2023/03/10 13:41:00;;;;;;;1.00;1.00;;;14.10;99.90;;;;;;7421332;19;20319;-80
2023/03/10 13:44:23;;;;;;;2.65;1.10;;;14.40;99.90;;;;;;7283355;19;2004439;-85
2023/03/10 13:50:42;;;;;;;1.25;1.00;;;14.90;99.90;;;;;;7416859;19;20976;-82
2023/03/10 13:59:34;;;;;;;3.07;1.00;;;15.30;99.90;;;;;;7377420;19;20328;-87
2023/03/10 14:02:03;;;;;;;0.90;0.90;;;15.00;99.90;;;;;;7392460;19;20373;-88
2023/03/10 14:04:50;;;;;;;1.13;0.82;;;14.90;99.90;;;;;;7250212;19;2004476;-81
2023/03/10 14:08:00;;;;;;;1.02;0.90;;;14.70;99.90;;;;;;7392037;19;20348;-85
2023/03/10 14:11:15;;;;;;;1.08;0.90;;;14.70;99.90;;;;;;7375068;19;20321;-86
2023/03/10 14:14:47;;;;;;;1.25;0.80;;;14.60;99.90;;;;;;7256451;19;2004192;-81
2023/03/10 14:18:05;;;;;;;2.50;1.10;;;14.60;99.90;;;;;;7411059;19;20320;-83
2023/03/10 14:27:36;;;;;;;1.10;1.00;;;14.60;99.90;;;;;;7396995;19;20308;-85
2023/03/10 14:30:09;;;;;;;1.35;1.13;;;14.50;99.90;;;;;;7417692;19;20340;-85
2023/03/10 14:32:35;;;;;;;1.02;0.98;;;14.50;99.90;;;;;;7415082;19;20319;-83
2023/03/10 14:35:01;;;;;;;1.00;0.80;;;14.30;99.90;;;;;;7415430;19;20313;-85
2023/03/10 14:37:27;;;;;;;1.73;1.30;;;14.30;99.90;;;;;;7413905;19;20326;-85
2023/03/10 14:39:52;;;;;;;1.00;0.80;;;14.40;99.90;;;;;;7417795;19;20336;-82
2023/03/10 14:42:22;;;;;;;1.10;1.00;;;14.40;99.90;;;;;;7415986;19;20348;-81
2023/03/10 14:44:49;;;;;;;2.40;1.67;;;14.40;99.90;;;;;;7409850;19;20371;-84
2023/03/10 14:47:15;;;;;;;2.83;1.73;;;14.40;99.90;;;;;;7408932;19;20363;-83
2023/03/10 14:49:40;;;;;;;3.10;2.03;;;14.30;99.90;;;;;;7415574;19;20340;-86
2023/03/10 14:52:14;;;;;;;11.70;6.27;;;14.30;99.90;;;;;;7414992;19;20315;-81
2023/03/10 14:54:40;;;;;;;2.00;1.33;;;14.30;99.90;;;;;;7416362;19;20305;-81
2023/03/10 14:57:06;;;;;;;1.57;1.00;;;14.20;99.90;;;;;;7415082;19;20323;-83
2023/03/10 14:59:31;;;;;;;1.20;1.10;;;14.10;99.90;;;;;;7418479;19;21299;-82
2023/03/10 15:01:57;;;;;;;1.23;1.13;;;14.10;99.90;;;;;;7416576;19;20297;-87
2023/03/10 15:04:23;;;;;;;2.38;1.15;;;14.10;99.90;;;;;;7416659;19;20355;-82
2023/03/10 15:06:48;;;;;;;1.00;1.00;;;14.10;99.90;;;;;;7416009;19;20328;-82
2023/03/10 15:09:15;;;;;;;1.57;0.80;;;13.90;99.90;;;;;;7407637;19;20370;-82
2023/03/10 15:11:41;;;;;;;1.83;1.00;;;13.80;99.90;;;;;;7408624;19;20876;-81
2023/03/10 15:14:12;;;;;;;1.07;1.07;;;13.50;99.90;;;;;;7404186;19;20335;-88
2023/03/10 15:16:38;;;;;;;1.08;1.00;;;13.40;99.90;;;;;;7408697;19;20349;-84